sensor_id;sensor_type;location;lat;lon;timestamp;temperature;humidity
68450;SHT30;55434;39.570;2.652;2022-09-13T00:00:50;27.10;68.04
68450;SHT30;55434;39.570;2.652;2022-09-13T00:03:16;26.95;68.29
68450;SHT30;55434;39.570;2.652;2022-09-13T00:05:42;26.85;68.67
68450;SHT30;55434;39.570;2.652;2022-09-13T00:08:08;26.82;68.84
68450;SHT30;55434;39.570;2.652;2022-09-13T00:10:36;26.73;68.93
68450;SHT30;55434;39.570;2.652;2022-09-13T00:13:03;26.69;68.97
68450;SHT30;55434;39.570;2.652;2022-09-13T00:15:29;26.65;68.80
68450;SHT30;55434;39.570;2.652;2022-09-13T00:17:55;26.65;68.51
68450;SHT30;55434;39.570;2.652;2022-09-13T00:20:21;26.66;67.96
68450;SHT30;55434;39.570;2.652;2022-09-13T00:22:47;26.65;67.83
68450;SHT30;55434;39.570;2.652;2022-09-13T00:25:12;26.71;67.66
68450;SHT30;55434;39.570;2.652;2022-09-13T00:27:38;26.69;66.50
68450;SHT30;55434;39.570;2.652;2022-09-13T00:30:05;26.69;65.84
68450;SHT30;55434;39.570;2.652;2022-09-13T00:32:32;26.73;65.59
68450;SHT30;55434;39.570;2.652;2022-09-13T00:34:57;26.71;63.28
68450;SHT30;55434;39.570;2.652;2022-09-13T00:37:23;26.71;62.90
68450;SHT30;55434;39.570;2.652;2022-09-13T00:39:49;26.71;62.51
68450;SHT30;55434;39.570;2.652;2022-09-13T00:42:14;26.71;60.31
68450;SHT30;55434;39.570;2.652;2022-09-13T00:44:59;26.76;60.67
68450;SHT30;55434;39.570;2.652;2022-09-13T00:50:04;26.89;58.99
68450;SHT30;55434;39.570;2.652;2022-09-13T00:52:34;26.83;58.29
68450;SHT30;55434;39.570;2.652;2022-09-13T00:55:05;26.76;58.53
68450;SHT30;55434;39.570;2.652;2022-09-13T00:57:33;26.73;58.90
68450;SHT30;55434;39.570;2.652;2022-09-13T01:00:06;26.68;59.60
68450;SHT30;55434;39.570;2.652;2022-09-13T01:02:46;26.68;59.85
68450;SHT30;55434;39.570;2.652;2022-09-13T01:05:15;26.66;59.98
68450;SHT30;55434;39.570;2.652;2022-09-13T01:07:43;26.62;60.59
68450;SHT30;55434;39.570;2.652;2022-09-13T01:10:09;26.60;60.94
68450;SHT30;55434;39.570;2.652;2022-09-13T01:12:45;26.59;60.95
68450;SHT30;55434;39.570;2.652;2022-09-13T01:15:12;26.57;61.02
68450;SHT30;55434;39.570;2.652;2022-09-13T01:17:38;26.57;61.11
68450;SHT30;55434;39.570;2.652;2022-09-13T01:20:05;26.53;60.74
68450;SHT30;55434;39.570;2.652;2022-09-13T01:29:27;26.52;60.91
68450;SHT30;55434;39.570;2.652;2022-09-13T01:37:57;26.35;63.67
68450;SHT30;55434;39.570;2.652;2022-09-13T01:41:02;26.31;64.61
68450;SHT30;55434;39.570;2.652;2022-09-13T01:43:55;26.24;65.23
68450;SHT30;55434;39.570;2.652;2022-09-13T01:46:36;26.22;65.24
68450;SHT30;55434;39.570;2.652;2022-09-13T01:51:43;26.22;65.47
68450;SHT30;55434;39.570;2.652;2022-09-13T01:59:54;26.28;65.02
68450;SHT30;55434;39.570;2.652;2022-09-13T02:02:28;26.20;65.14
68450;SHT30;55434;39.570;2.652;2022-09-13T02:05:17;26.14;65.44
68450;SHT30;55434;39.570;2.652;2022-09-13T02:07:56;26.15;65.66
68450;SHT30;55434;39.570;2.652;2022-09-13T02:10:32;26.15;66.26
68450;SHT30;55434;39.570;2.652;2022-09-13T02:12:59;26.06;66.55
68450;SHT30;55434;39.570;2.652;2022-09-13T02:15:33;26.02;66.58
68450;SHT30;55434;39.570;2.652;2022-09-13T02:18:07;25.94;66.51
68450;SHT30;55434;39.570;2.652;2022-09-13T02:20:37;25.90;66.29
68450;SHT30;55434;39.570;2.652;2022-09-13T02:23:15;25.81;65.93
68450;SHT30;55434;39.570;2.652;2022-09-13T02:25:43;25.81;65.62
68450;SHT30;55434;39.570;2.652;2022-09-13T02:28:12;25.80;65.72
68450;SHT30;55434;39.570;2.652;2022-09-13T02:30:49;25.84;66.84
68450;SHT30;55434;39.570;2.652;2022-09-13T02:33:19;25.88;66.46
68450;SHT30;55434;39.570;2.652;2022-09-13T02:36:02;25.93;66.27
68450;SHT30;55434;39.570;2.652;2022-09-13T02:38:46;25.84;66.62
68450;SHT30;55434;39.570;2.652;2022-09-13T02:43:49;25.88;67.16
68450;SHT30;55434;39.570;2.652;2022-09-13T02:52:11;25.90;67.35
68450;SHT30;55434;39.570;2.652;2022-09-13T02:57:28;25.97;67.67
68450;SHT30;55434;39.570;2.652;2022-09-13T02:59:56;25.97;67.72
68450;SHT30;55434;39.570;2.652;2022-09-13T03:02:24;25.93;67.67
68450;SHT30;55434;39.570;2.652;2022-09-13T03:04:52;25.88;67.85
68450;SHT30;55434;39.570;2.652;2022-09-13T03:07:18;25.93;67.98
68450;SHT30;55434;39.570;2.652;2022-09-13T03:09:53;25.93;68.46
68450;SHT30;55434;39.570;2.652;2022-09-13T03:15:28;26.04;68.31
68450;SHT30;55434;39.570;2.652;2022-09-13T03:20:51;26.02;68.45
68450;SHT30;55434;39.570;2.652;2022-09-13T03:28:59;25.97;68.40
68450;SHT30;55434;39.570;2.652;2022-09-13T03:31:39;25.87;68.66
68450;SHT30;55434;39.570;2.652;2022-09-13T03:36:55;25.87;68.60
68450;SHT30;55434;39.570;2.652;2022-09-13T03:42:23;25.88;69.72
68450;SHT30;55434;39.570;2.652;2022-09-13T03:44:54;25.87;69.11
68450;SHT30;55434;39.570;2.652;2022-09-13T03:47:22;25.93;69.85
68450;SHT30;55434;39.570;2.652;2022-09-13T03:49:50;25.88;70.58
68450;SHT30;55434;39.570;2.652;2022-09-13T03:52:17;25.87;70.55
68450;SHT30;55434;39.570;2.652;2022-09-13T03:54:47;25.87;70.97
68450;SHT30;55434;39.570;2.652;2022-09-13T03:57:19;25.90;70.69
68450;SHT30;55434;39.570;2.652;2022-09-13T03:59:48;25.93;69.47
68450;SHT30;55434;39.570;2.652;2022-09-13T04:02:15;25.90;69.14
68450;SHT30;55434;39.570;2.652;2022-09-13T04:04:42;25.84;69.18
68450;SHT30;55434;39.570;2.652;2022-09-13T04:07:10;25.84;69.65
68450;SHT30;55434;39.570;2.652;2022-09-13T04:09:36;25.75;69.85
68450;SHT30;55434;39.570;2.652;2022-09-13T04:12:02;25.74;70.09
68450;SHT30;55434;39.570;2.652;2022-09-13T04:14:27;25.71;70.33
68450;SHT30;55434;39.570;2.652;2022-09-13T04:16:54;25.70;70.79
68450;SHT30;55434;39.570;2.652;2022-09-13T04:19:21;25.69;71.08
68450;SHT30;55434;39.570;2.652;2022-09-13T04:21:51;25.69;71.06
68450;SHT30;55434;39.570;2.652;2022-09-13T04:24:17;25.73;70.92
68450;SHT30;55434;39.570;2.652;2022-09-13T04:26:53;25.74;70.86
68450;SHT30;55434;39.570;2.652;2022-09-13T04:29:20;25.71;71.59
68450;SHT30;55434;39.570;2.652;2022-09-13T04:31:50;25.77;71.94
68450;SHT30;55434;39.570;2.652;2022-09-13T04:34:16;25.75;72.35
68450;SHT30;55434;39.570;2.652;2022-09-13T04:36:43;25.69;72.65
68450;SHT30;55434;39.570;2.652;2022-09-13T04:39:09;25.74;73.10
68450;SHT30;55434;39.570;2.652;2022-09-13T04:41:35;25.73;73.30
68450;SHT30;55434;39.570;2.652;2022-09-13T04:44:01;25.71;73.72
68450;SHT30;55434;39.570;2.652;2022-09-13T04:46:28;25.90;72.78
68450;SHT30;55434;39.570;2.652;2022-09-13T04:48:54;26.04;72.31
68450;SHT30;55434;39.570;2.652;2022-09-13T04:51:21;26.01;72.72
68450;SHT30;55434;39.570;2.652;2022-09-13T04:53:52;25.94;72.96
68450;SHT30;55434;39.570;2.652;2022-09-13T04:56:23;25.90;73.13
68450;SHT30;55434;39.570;2.652;2022-09-13T04:58:54;25.88;73.29
68450;SHT30;55434;39.570;2.652;2022-09-13T05:01:21;25.87;73.06
68450;SHT30;55434;39.570;2.652;2022-09-13T05:03:47;25.80;72.84
68450;SHT30;55434;39.570;2.652;2022-09-13T05:06:14;25.71;72.60
68450;SHT30;55434;39.570;2.652;2022-09-13T05:08:43;25.69;73.35
68450;SHT30;55434;39.570;2.652;2022-09-13T05:11:09;25.75;74.30
68450;SHT30;55434;39.570;2.652;2022-09-13T05:13:35;25.78;74.83
68450;SHT30;55434;39.570;2.652;2022-09-13T05:16:03;25.93;73.97
68450;SHT30;55434;39.570;2.652;2022-09-13T05:18:31;25.97;74.56
68450;SHT30;55434;39.570;2.652;2022-09-13T05:20:59;26.00;74.38
68450;SHT30;55434;39.570;2.652;2022-09-13T05:23:26;25.93;74.74
68450;SHT30;55434;39.570;2.652;2022-09-13T05:25:57;25.84;74.85
68450;SHT30;55434;39.570;2.652;2022-09-13T05:28:23;25.80;75.04
68450;SHT30;55434;39.570;2.652;2022-09-13T05:31:06;25.75;74.27
68450;SHT30;55434;39.570;2.652;2022-09-13T05:33:34;25.60;75.36
68450;SHT30;55434;39.570;2.652;2022-09-13T05:36:00;25.64;75.91
68450;SHT30;55434;39.570;2.652;2022-09-13T05:38:27;25.64;76.52
68450;SHT30;55434;39.570;2.652;2022-09-13T05:40:58;25.71;76.72
68450;SHT30;55434;39.570;2.652;2022-09-13T05:43:27;25.95;75.48
68450;SHT30;55434;39.570;2.652;2022-09-13T05:46:20;26.20;75.09
68450;SHT30;55434;39.570;2.652;2022-09-13T05:48:47;26.15;75.25
68450;SHT30;55434;39.570;2.652;2022-09-13T05:51:15;26.08;75.73
68450;SHT30;55434;39.570;2.652;2022-09-13T05:53:44;26.09;76.10
68450;SHT30;55434;39.570;2.652;2022-09-13T05:56:13;26.15;76.24
68450;SHT30;55434;39.570;2.652;2022-09-13T05:58:41;26.28;75.49
68450;SHT30;55434;39.570;2.652;2022-09-13T06:01:08;26.39;75.76
68450;SHT30;55434;39.570;2.652;2022-09-13T06:03:34;26.45;76.00
68450;SHT30;55434;39.570;2.652;2022-09-13T06:06:04;26.45;75.84
68450;SHT30;55434;39.570;2.652;2022-09-13T06:08:31;26.56;75.30
68450;SHT30;55434;39.570;2.652;2022-09-13T06:10:59;26.72;74.94
68450;SHT30;55434;39.570;2.652;2022-09-13T06:13:26;26.75;75.09
68450;SHT30;55434;39.570;2.652;2022-09-13T06:15:54;26.79;75.03
68450;SHT30;55434;39.570;2.652;2022-09-13T06:18:20;26.76;75.46
68450;SHT30;55434;39.570;2.652;2022-09-13T06:20:46;26.86;74.84
68450;SHT30;55434;39.570;2.652;2022-09-13T06:23:12;26.99;74.46
68450;SHT30;55434;39.570;2.652;2022-09-13T06:25:38;27.11;73.84
68450;SHT30;55434;39.570;2.652;2022-09-13T06:28:04;27.24;73.40
68450;SHT30;55434;39.570;2.652;2022-09-13T06:30:29;27.20;73.51
68450;SHT30;55434;39.570;2.652;2022-09-13T06:32:56;27.22;73.55
68450;SHT30;55434;39.570;2.652;2022-09-13T06:35:21;27.22;74.22
68450;SHT30;55434;39.570;2.652;2022-09-13T06:37:47;27.31;73.74
68450;SHT30;55434;39.570;2.652;2022-09-13T06:40:13;27.44;73.19
68450;SHT30;55434;39.570;2.652;2022-09-13T06:42:39;27.44;74.02
68450;SHT30;55434;39.570;2.652;2022-09-13T06:45:05;27.46;73.41
68450;SHT30;55434;39.570;2.652;2022-09-13T06:47:31;27.62;73.24
68450;SHT30;55434;39.570;2.652;2022-09-13T06:49:57;27.65;73.12
68450;SHT30;55434;39.570;2.652;2022-09-13T06:52:23;27.58;73.55
68450;SHT30;55434;39.570;2.652;2022-09-13T06:54:49;27.67;72.73
68450;SHT30;55434;39.570;2.652;2022-09-13T06:57:15;27.65;72.52
68450;SHT30;55434;39.570;2.652;2022-09-13T06:59:40;27.68;72.30
68450;SHT30;55434;39.570;2.652;2022-09-13T07:02:06;27.85;71.84
68450;SHT30;55434;39.570;2.652;2022-09-13T07:04:32;27.74;71.61
68450;SHT30;55434;39.570;2.652;2022-09-13T07:06:58;27.81;71.14
68450;SHT30;55434;39.570;2.652;2022-09-13T07:09:24;27.75;71.61
68450;SHT30;55434;39.570;2.652;2022-09-13T07:11:52;27.88;71.17
68450;SHT30;55434;39.570;2.652;2022-09-13T07:14:28;27.98;71.41
68450;SHT30;55434;39.570;2.652;2022-09-13T07:16:54;28.10;70.96
68450;SHT30;55434;39.570;2.652;2022-09-13T07:19:22;27.99;71.38
68450;SHT30;55434;39.570;2.652;2022-09-13T07:21:49;28.08;70.88
68450;SHT30;55434;39.570;2.652;2022-09-13T07:24:15;28.16;70.59
68450;SHT30;55434;39.570;2.652;2022-09-13T07:26:41;28.32;70.34
68450;SHT30;55434;39.570;2.652;2022-09-13T07:29:10;28.39;70.29
68450;SHT30;55434;39.570;2.652;2022-09-13T07:31:41;28.55;70.04
68450;SHT30;55434;39.570;2.652;2022-09-13T07:34:12;28.56;70.04
68450;SHT30;55434;39.570;2.652;2022-09-13T07:36:38;28.46;69.99
68450;SHT30;55434;39.570;2.652;2022-09-13T07:39:04;28.56;70.04
68450;SHT30;55434;39.570;2.652;2022-09-13T07:41:31;28.69;69.69
68450;SHT30;55434;39.570;2.652;2022-09-13T07:43:58;28.87;69.18
68450;SHT30;55434;39.570;2.652;2022-09-13T07:46:27;29.12;69.91
68450;SHT30;55434;39.570;2.652;2022-09-13T07:48:57;29.30;68.80
68450;SHT30;55434;39.570;2.652;2022-09-13T07:51:28;29.22;67.44
68450;SHT30;55434;39.570;2.652;2022-09-13T07:53:56;29.22;67.48
68450;SHT30;55434;39.570;2.652;2022-09-13T07:56:25;29.34;67.91
68450;SHT30;55434;39.570;2.652;2022-09-13T07:58:51;29.21;68.79
68450;SHT30;55434;39.570;2.652;2022-09-13T08:01:24;29.34;67.92
68450;SHT30;55434;39.570;2.652;2022-09-13T08:04:01;29.32;68.86
68450;SHT30;55434;39.570;2.652;2022-09-13T08:06:29;29.30;69.31
68450;SHT30;55434;39.570;2.652;2022-09-13T08:08:56;29.49;68.50
68450;SHT30;55434;39.570;2.652;2022-09-13T08:11:24;29.57;67.84
68450;SHT30;55434;39.570;2.652;2022-09-13T08:13:51;29.47;69.03
68450;SHT30;55434;39.570;2.652;2022-09-13T08:16:19;29.58;68.55
68450;SHT30;55434;39.570;2.652;2022-09-13T08:18:46;29.51;68.99
68450;SHT30;55434;39.570;2.652;2022-09-13T08:21:12;29.55;68.93
68450;SHT30;55434;39.570;2.652;2022-09-13T08:23:39;29.65;68.93
68450;SHT30;55434;39.570;2.652;2022-09-13T08:26:05;29.83;68.05
68450;SHT30;55434;39.570;2.652;2022-09-13T08:28:34;29.62;69.56
68450;SHT30;55434;39.570;2.652;2022-09-13T08:31:05;29.71;70.06
68450;SHT30;55434;39.570;2.652;2022-09-13T08:33:31;29.71;69.70
68450;SHT30;55434;39.570;2.652;2022-09-13T08:35:57;29.76;69.58
68450;SHT30;55434;39.570;2.652;2022-09-13T08:38:23;29.92;69.36
68450;SHT30;55434;39.570;2.652;2022-09-13T08:40:53;30.05;68.95
68450;SHT30;55434;39.570;2.652;2022-09-13T08:43:34;29.99;69.23
68450;SHT30;55434;39.570;2.652;2022-09-13T08:46:09;29.88;69.67
68450;SHT30;55434;39.570;2.652;2022-09-13T08:48:39;29.88;69.74
68450;SHT30;55434;39.570;2.652;2022-09-13T08:51:55;29.89;68.87
68450;SHT30;55434;39.570;2.652;2022-09-13T08:54:00;30.03;69.25
68450;SHT30;55434;39.570;2.652;2022-09-13T09:02:24;30.20;67.83
68450;SHT30;55434;39.570;2.652;2022-09-13T09:07:33;30.27;66.67
68450;SHT30;55434;39.570;2.652;2022-09-13T09:10:05;30.51;65.93
68450;SHT30;55434;39.570;2.652;2022-09-13T09:12:33;30.61;65.14
68450;SHT30;55434;39.570;2.652;2022-09-13T09:17:54;30.63;63.53
68450;SHT30;55434;39.570;2.652;2022-09-13T09:22:53;30.85;62.62
68450;SHT30;55434;39.570;2.652;2022-09-13T09:25:21;31.02;61.78
68450;SHT30;55434;39.570;2.652;2022-09-13T09:27:47;31.26;61.18
68450;SHT30;55434;39.570;2.652;2022-09-13T09:30:13;31.45;60.37
68450;SHT30;55434;39.570;2.652;2022-09-13T09:33:02;31.77;58.92
68450;SHT30;55434;39.570;2.652;2022-09-13T09:41:02;32.68;56.16
68450;SHT30;55434;39.570;2.652;2022-09-13T09:46:32;32.94;54.38
68450;SHT30;55434;39.570;2.652;2022-09-13T09:49:14;33.42;53.48
68450;SHT30;55434;39.570;2.652;2022-09-13T09:52:00;33.55;53.22
68450;SHT30;55434;39.570;2.652;2022-09-13T09:54:32;33.62;53.81
68450;SHT30;55434;39.570;2.652;2022-09-13T09:57:00;33.49;54.10
68450;SHT30;55434;39.570;2.652;2022-09-13T09:59:30;33.33;55.28
68450;SHT30;55434;39.570;2.652;2022-09-13T10:01:58;32.89;55.99
68450;SHT30;55434;39.570;2.652;2022-09-13T10:04:25;33.08;55.51
68450;SHT30;55434;39.570;2.652;2022-09-13T10:07:18;33.06;55.27
68450;SHT30;55434;39.570;2.652;2022-09-13T10:09:59;32.84;55.12
68450;SHT30;55434;39.570;2.652;2022-09-13T10:12:31;33.22;53.40
68450;SHT30;55434;39.570;2.652;2022-09-13T10:15:19;33.57;52.60
68450;SHT30;55434;39.570;2.652;2022-09-13T10:18:05;33.47;53.07
68450;SHT30;55434;39.570;2.652;2022-09-13T10:20:32;33.36;53.47
68450;SHT30;55434;39.570;2.652;2022-09-13T10:23:27;33.81;52.49
68450;SHT30;55434;39.570;2.652;2022-09-13T10:28:25;33.86;51.82
68450;SHT30;55434;39.570;2.652;2022-09-13T10:31:12;34.13;50.76
68450;SHT30;55434;39.570;2.652;2022-09-13T10:33:41;35.18;47.11
68450;SHT30;55434;39.570;2.652;2022-09-13T10:36:19;36.81;44.67
68450;SHT30;55434;39.570;2.652;2022-09-13T10:38:56;37.32;42.28
68450;SHT30;55434;39.570;2.652;2022-09-13T10:41:25;38.38;41.69
68450;SHT30;55434;39.570;2.652;2022-09-13T10:43:57;38.07;41.23
68450;SHT30;55434;39.570;2.652;2022-09-13T10:46:24;37.16;42.97
68450;SHT30;55434;39.570;2.652;2022-09-13T10:48:50;36.81;44.02
68450;SHT30;55434;39.570;2.652;2022-09-13T10:54:07;36.67;44.52
68450;SHT30;55434;39.570;2.652;2022-09-13T10:56:33;36.38;44.82
68450;SHT30;55434;39.570;2.652;2022-09-13T10:59:25;37.95;41.63
68450;SHT30;55434;39.570;2.652;2022-09-13T11:05:14;41.14;37.07
68450;SHT30;55434;39.570;2.652;2022-09-13T11:10:36;40.32;37.91
68450;SHT30;55434;39.570;2.652;2022-09-13T11:13:35;40.48;37.68
68450;SHT30;55434;39.570;2.652;2022-09-13T11:41:20;38.98;38.41
68450;SHT30;55434;39.570;2.652;2022-09-13T11:51:42;39.14;36.77
68450;SHT30;55434;39.570;2.652;2022-09-13T11:54:25;39.49;35.94
68450;SHT30;55434;39.570;2.652;2022-09-13T11:56:57;37.27;48.25
68450;SHT30;55434;39.570;2.652;2022-09-13T11:59:37;35.91;53.06
68450;SHT30;55434;39.570;2.652;2022-09-13T12:02:25;34.95;56.15
68450;SHT30;55434;39.570;2.652;2022-09-13T12:05:06;34.13;60.33
68450;SHT30;55434;39.570;2.652;2022-09-13T12:07:42;34.31;59.44
68450;SHT30;55434;39.570;2.652;2022-09-13T12:10:21;33.94;60.40
68450;SHT30;55434;39.570;2.652;2022-09-13T12:12:48;32.96;65.62
68450;SHT30;55434;39.570;2.652;2022-09-13T12:18:29;31.96;68.91
68450;SHT30;55434;39.570;2.652;2022-09-13T12:21:06;31.86;69.09
68450;SHT30;55434;39.570;2.652;2022-09-13T12:23:42;31.42;70.46
68450;SHT30;55434;39.570;2.652;2022-09-13T12:27:15;31.31;69.89
68450;SHT30;55434;39.570;2.652;2022-09-13T12:29:24;31.38;67.63
68450;SHT30;55434;39.570;2.652;2022-09-13T12:31:58;31.58;66.50
68450;SHT30;55434;39.570;2.652;2022-09-13T12:50:58;35.83;53.45
68450;SHT30;55434;39.570;2.652;2022-09-13T12:53:53;35.43;53.78
68450;SHT30;55434;39.570;2.652;2022-09-13T13:01:30;34.55;56.63
68450;SHT30;55434;39.570;2.652;2022-09-13T13:04:08;34.43;55.89
68450;SHT30;55434;39.570;2.652;2022-09-13T13:06:49;33.67;58.18
68450;SHT30;55434;39.570;2.652;2022-09-13T13:09:38;32.75;60.29
68450;SHT30;55434;39.570;2.652;2022-09-13T13:14:49;32.53;60.68
68450;SHT30;55434;39.570;2.652;2022-09-13T13:23:35;32.04;62.55
68450;SHT30;55434;39.570;2.652;2022-09-13T13:31:34;32.17;61.74
68450;SHT30;55434;39.570;2.652;2022-09-13T13:57:30;32.84;54.66
68450;SHT30;55434;39.570;2.652;2022-09-13T14:19:49;32.38;59.51
68450;SHT30;55434;39.570;2.652;2022-09-13T14:22:19;32.45;58.75
68450;SHT30;55434;39.570;2.652;2022-09-13T14:24:56;32.77;57.39
68450;SHT30;55434;39.570;2.652;2022-09-13T14:27:28;33.45;56.28
68450;SHT30;55434;39.570;2.652;2022-09-13T14:29:56;33.98;54.75
68450;SHT30;55434;39.570;2.652;2022-09-13T14:32:26;34.51;52.51
68450;SHT30;55434;39.570;2.652;2022-09-13T14:37:19;34.30;52.73
68450;SHT30;55434;39.570;2.652;2022-09-13T14:40:21;33.56;54.57
68450;SHT30;55434;39.570;2.652;2022-09-13T14:42:49;33.67;54.47
68450;SHT30;55434;39.570;2.652;2022-09-13T14:45:19;32.96;56.68
68450;SHT30;55434;39.570;2.652;2022-09-13T14:48:05;33.09;56.48
68450;SHT30;55434;39.570;2.652;2022-09-13T14:50:37;32.60;58.24
68450;SHT30;55434;39.570;2.652;2022-09-13T14:53:12;32.63;58.27
68450;SHT30;55434;39.570;2.652;2022-09-13T14:55:52;33.02;57.78
68450;SHT30;55434;39.570;2.652;2022-09-13T14:58:28;32.99;57.61
68450;SHT30;55434;39.570;2.652;2022-09-13T15:01:01;33.73;55.90
68450;SHT30;55434;39.570;2.652;2022-09-13T15:03:28;34.07;55.39
68450;SHT30;55434;39.570;2.652;2022-09-13T15:05:57;33.80;55.63
68450;SHT30;55434;39.570;2.652;2022-09-13T15:11:00;33.26;57.42
68450;SHT30;55434;39.570;2.652;2022-09-13T15:13:26;33.09;57.88
68450;SHT30;55434;39.570;2.652;2022-09-13T15:15:52;33.39;56.74
68450;SHT30;55434;39.570;2.652;2022-09-13T15:21:03;32.71;57.18
68450;SHT30;55434;39.570;2.652;2022-09-13T15:23:38;32.85;57.02
68450;SHT30;55434;39.570;2.652;2022-09-13T15:26:22;32.24;58.22
68450;SHT30;55434;39.570;2.652;2022-09-13T15:28:58;32.30;58.18
68450;SHT30;55434;39.570;2.652;2022-09-13T15:31:28;32.30;58.02
68450;SHT30;55434;39.570;2.652;2022-09-13T15:36:43;32.10;58.50
68450;SHT30;55434;39.570;2.652;2022-09-13T15:41:40;31.94;57.56
68450;SHT30;55434;39.570;2.652;2022-09-13T15:44:07;31.87;57.71
68450;SHT30;55434;39.570;2.652;2022-09-13T15:46:46;32.03;56.93
68450;SHT30;55434;39.570;2.652;2022-09-13T15:49:17;31.92;57.07
68450;SHT30;55434;39.570;2.652;2022-09-13T15:51:44;31.92;56.47
68450;SHT30;55434;39.570;2.652;2022-09-13T15:54:15;32.36;55.09
68450;SHT30;55434;39.570;2.652;2022-09-13T15:56:43;33.01;53.50
68450;SHT30;55434;39.570;2.652;2022-09-13T15:59:14;32.72;54.19
68450;SHT30;55434;39.570;2.652;2022-09-13T16:01:41;32.44;54.54
68450;SHT30;55434;39.570;2.652;2022-09-13T16:04:07;32.47;54.62
68450;SHT30;55434;39.570;2.652;2022-09-13T16:06:33;32.33;54.77
68450;SHT30;55434;39.570;2.652;2022-09-13T16:08:59;32.36;54.78
68450;SHT30;55434;39.570;2.652;2022-09-13T16:11:26;32.20;55.02
68450;SHT30;55434;39.570;2.652;2022-09-13T16:13:51;32.10;54.80
68450;SHT30;55434;39.570;2.652;2022-09-13T16:16:17;32.09;54.79
68450;SHT30;55434;39.570;2.652;2022-09-13T16:18:43;32.04;54.70
68450;SHT30;55434;39.570;2.652;2022-09-13T16:21:09;32.07;54.70
68450;SHT30;55434;39.570;2.652;2022-09-13T16:23:35;32.06;54.55
68450;SHT30;55434;39.570;2.652;2022-09-13T16:26:00;32.02;54.45
68450;SHT30;55434;39.570;2.652;2022-09-13T16:28:26;32.13;54.45
68450;SHT30;55434;39.570;2.652;2022-09-13T16:30:52;32.20;54.28
68450;SHT30;55434;39.570;2.652;2022-09-13T16:33:18;32.28;54.38
68450;SHT30;55434;39.570;2.652;2022-09-13T16:35:45;32.34;54.66
68450;SHT30;55434;39.570;2.652;2022-09-13T16:38:11;32.38;55.07
68450;SHT30;55434;39.570;2.652;2022-09-13T16:40:38;32.33;55.81
68450;SHT30;55434;39.570;2.652;2022-09-13T16:43:05;32.19;58.11
68450;SHT30;55434;39.570;2.652;2022-09-13T16:45:31;32.00;59.17
68450;SHT30;55434;39.570;2.652;2022-09-13T16:47:57;32.02;59.65
68450;SHT30;55434;39.570;2.652;2022-09-13T16:50:22;31.90;59.42
68450;SHT30;55434;39.570;2.652;2022-09-13T16:52:48;31.80;60.35
68450;SHT30;55434;39.570;2.652;2022-09-13T16:55:14;31.77;60.37
68450;SHT30;55434;39.570;2.652;2022-09-13T16:57:40;31.67;60.60
68450;SHT30;55434;39.570;2.652;2022-09-13T17:00:07;31.49;60.92
68450;SHT30;55434;39.570;2.652;2022-09-13T17:02:36;31.45;60.99
68450;SHT30;55434;39.570;2.652;2022-09-13T17:05:03;31.41;61.17
68450;SHT30;55434;39.570;2.652;2022-09-13T17:07:30;31.39;61.38
68450;SHT30;55434;39.570;2.652;2022-09-13T17:09:56;31.28;61.66
68450;SHT30;55434;39.570;2.652;2022-09-13T17:12:22;31.28;62.02
68450;SHT30;55434;39.570;2.652;2022-09-13T17:14:47;31.25;61.97
68450;SHT30;55434;39.570;2.652;2022-09-13T17:17:15;31.26;62.14
68450;SHT30;55434;39.570;2.652;2022-09-13T17:19:42;31.16;62.40
68450;SHT30;55434;39.570;2.652;2022-09-13T17:22:09;31.15;62.75
68450;SHT30;55434;39.570;2.652;2022-09-13T17:24:36;31.15;62.86
68450;SHT30;55434;39.570;2.652;2022-09-13T17:27:04;31.04;62.92
68450;SHT30;55434;39.570;2.652;2022-09-13T17:29:32;30.98;63.03
68450;SHT30;55434;39.570;2.652;2022-09-13T17:31:59;31.01;62.93
68450;SHT30;55434;39.570;2.652;2022-09-13T17:34:25;30.98;62.87
68450;SHT30;55434;39.570;2.652;2022-09-13T17:36:51;30.92;62.73
68450;SHT30;55434;39.570;2.652;2022-09-13T17:39:18;30.92;62.46
68450;SHT30;55434;39.570;2.652;2022-09-13T17:41:44;30.95;62.03
68450;SHT30;55434;39.570;2.652;2022-09-13T17:44:10;30.90;62.31
68450;SHT30;55434;39.570;2.652;2022-09-13T17:46:40;30.90;61.83
68450;SHT30;55434;39.570;2.652;2022-09-13T17:49:06;30.83;62.18
68450;SHT30;55434;39.570;2.652;2022-09-13T17:51:32;30.83;61.27
68450;SHT30;55434;39.570;2.652;2022-09-13T17:54:04;30.81;60.84
68450;SHT30;55434;39.570;2.652;2022-09-13T17:56:35;30.84;58.92
68450;SHT30;55434;39.570;2.652;2022-09-13T18:01:38;30.81;58.48
68450;SHT30;55434;39.570;2.652;2022-09-13T18:04:05;30.73;59.50
68450;SHT30;55434;39.570;2.652;2022-09-13T18:06:32;30.64;59.93
68450;SHT30;55434;39.570;2.652;2022-09-13T18:08:58;30.54;60.62
68450;SHT30;55434;39.570;2.652;2022-09-13T18:11:23;30.44;61.19
68450;SHT30;55434;39.570;2.652;2022-09-13T18:13:50;30.34;61.64
68450;SHT30;55434;39.570;2.652;2022-09-13T18:16:19;30.33;61.85
68450;SHT30;55434;39.570;2.652;2022-09-13T18:18:45;30.36;62.03
68450;SHT30;55434;39.570;2.652;2022-09-13T18:21:12;30.19;62.61
68450;SHT30;55434;39.570;2.652;2022-09-13T18:23:48;30.12;63.44
68450;SHT30;55434;39.570;2.652;2022-09-13T18:26:16;30.03;63.66
68450;SHT30;55434;39.570;2.652;2022-09-13T18:28:42;29.89;64.07
68450;SHT30;55434;39.570;2.652;2022-09-13T18:31:12;29.92;63.81
68450;SHT30;55434;39.570;2.652;2022-09-13T18:33:38;29.83;64.15
68450;SHT30;55434;39.570;2.652;2022-09-13T18:36:12;29.85;64.32
68450;SHT30;55434;39.570;2.652;2022-09-13T18:38:39;29.83;64.63
68450;SHT30;55434;39.570;2.652;2022-09-13T18:41:08;29.81;64.68
68450;SHT30;55434;39.570;2.652;2022-09-13T18:43:35;29.81;65.39
68450;SHT30;55434;39.570;2.652;2022-09-13T18:46:03;29.76;65.54
68450;SHT30;55434;39.570;2.652;2022-09-13T18:48:35;29.76;65.35
68450;SHT30;55434;39.570;2.652;2022-09-13T18:51:02;29.75;65.01
68450;SHT30;55434;39.570;2.652;2022-09-13T18:53:28;29.76;64.36
68450;SHT30;55434;39.570;2.652;2022-09-13T18:55:54;29.73;64.33
68450;SHT30;55434;39.570;2.652;2022-09-13T18:58:23;29.72;63.81
68450;SHT30;55434;39.570;2.652;2022-09-13T19:03:29;29.66;63.58
68450;SHT30;55434;39.570;2.652;2022-09-13T19:06:12;29.69;62.99
68450;SHT30;55434;39.570;2.652;2022-09-13T19:08:38;29.69;63.05
68450;SHT30;55434;39.570;2.652;2022-09-13T19:11:05;29.69;63.44
68450;SHT30;55434;39.570;2.652;2022-09-13T19:13:31;29.63;63.92
68450;SHT30;55434;39.570;2.652;2022-09-13T19:16:02;29.62;64.22
68450;SHT30;55434;39.570;2.652;2022-09-13T19:18:29;29.49;65.63
68450;SHT30;55434;39.570;2.652;2022-09-13T19:21:06;29.48;65.80
68450;SHT30;55434;39.570;2.652;2022-09-13T19:23:33;29.45;67.17
68450;SHT30;55434;39.570;2.652;2022-09-13T19:26:49;29.37;67.91
68450;SHT30;55434;39.570;2.652;2022-09-13T19:28:58;29.28;69.41